Time;durP1;ratioP1;P1;durP2;ratioP2;P2;SDS_P1;SDS_P2;PMS_P1;PMS_P2;Temp;Humidity;BMP_temperature;BMP_pressure;BME280_temperature;BME280_humidity;BME280_pressure;Samples;Min_cycle;Max_cycle;Signal;HPM_P1;HPM_P2
2022/05/22 00:00:22;;;;;;;;;;;14.10;99.90;;;;;;5094060;28;20253;-71
2022/05/22 00:02:48;;;;;;;;;;;14.00;99.90;;;;;;5093751;28;19912;-72
2022/05/22 00:05:16;;;;;;;;;;;14.00;99.90;;;;;;5075407;28;19938;-71
2022/05/22 00:07:42;;;;;;;;;;;13.90;99.90;;;;;;5093583;28;19966;-73
2022/05/22 00:10:08;;;;;;;;;;;13.90;99.90;;;;;;5093916;28;19912;-71
2022/05/22 00:12:34;;;;;;;;;;;13.80;99.90;;;;;;5075077;28;19916;-71
2022/05/22 00:15:00;;;;;;;;;;;13.80;99.90;;;;;;5093796;28;19912;-72
2022/05/22 00:17:25;;;;;;;;;;;13.70;99.90;;;;;;5093321;28;19916;-71
2022/05/22 00:19:51;;;;;;;;;;;13.70;99.90;;;;;;5075381;28;19951;-71
2022/05/22 00:22:17;;;;;;;;;;;13.60;99.90;;;;;;5074994;28;19927;-72
2022/05/22 00:24:43;;;;;;;;;;;13.60;99.90;;;;;;5075251;28;19923;-73
2022/05/22 00:27:08;;;;;;;;;;;13.50;99.90;;;;;;5093247;28;19912;-71
2022/05/22 00:29:34;;;;;;;;;;;13.40;99.90;;;;;;5075212;28;20303;-71
2022/05/22 00:32:00;;;;;;;;;;;13.40;99.90;;;;;;5093496;28;19955;-72
2022/05/22 00:34:25;;;;;;;;;;;13.40;99.90;;;;;;5075001;28;19912;-71
2022/05/22 00:36:51;;;;;;;;;;;13.30;99.90;;;;;;5093082;28;20329;-71
2022/05/22 00:39:16;;;;;;;;;;;13.40;99.90;;;;;;5093262;28;19930;-72
2022/05/22 00:41:46;;;;;;;;;;;13.30;99.90;;;;;;5074885;28;19955;-72
2022/05/22 00:44:11;;;;;;;;;;;13.20;99.90;;;;;;5093375;28;19917;-71
2022/05/22 00:46:37;;;;;;;;;;;13.20;99.90;;;;;;5074588;28;19912;-72
2022/05/22 00:49:12;;;;;;;;;;;13.30;99.90;;;;;;5092916;28;19913;-71
2022/05/22 00:51:39;;;;;;;;;;;13.30;99.90;;;;;;5092749;28;19962;-73
2022/05/22 00:54:10;;;;;;;;;;;13.30;99.90;;;;;;5092744;28;19965;-72
2022/05/22 00:56:39;;;;;;;;;;;13.20;99.90;;;;;;5092572;28;20429;-71
2022/05/22 00:59:05;;;;;;;;;;;13.20;99.90;;;;;;5092754;28;20050;-72
2022/05/22 01:01:31;;;;;;;;;;;13.20;99.90;;;;;;5092633;28;19938;-73
2022/05/22 01:03:58;;;;;;;;;;;13.10;99.90;;;;;;5092891;28;20350;-72
2022/05/22 01:06:26;;;;;;;;;;;13.10;99.90;;;;;;5074112;28;19913;-71
2022/05/22 01:08:51;;;;;;;;;;;13.10;99.90;;;;;;5074257;28;19916;-73
2022/05/22 01:11:20;;;;;;;;;;;13.00;99.90;;;;;;5074063;28;19912;-72
2022/05/22 01:13:47;;;;;;;;;;;13.00;99.90;;;;;;5092444;28;19962;-73
2022/05/22 01:16:13;;;;;;;;;;;12.90;99.90;;;;;;5091831;28;19912;-72
2022/05/22 01:18:46;;;;;;;;;;;12.90;99.90;;;;;;5092350;28;19939;-71
2022/05/22 01:21:13;;;;;;;;;;;12.90;99.90;;;;;;5092214;28;19916;-72
2022/05/22 01:23:39;;;;;;;;;;;12.80;99.90;;;;;;5091945;28;19989;-71
2022/05/22 01:26:04;;;;;;;;;;;12.80;99.90;;;;;;5092099;28;20011;-71
2022/05/22 01:28:30;;;;;;;;;;;12.80;99.90;;;;;;5092144;28;19920;-72
2022/05/22 01:30:55;;;;;;;;;;;12.80;99.90;;;;;;5073886;28;19981;-71
2022/05/22 01:33:21;;;;;;;;;;;12.80;99.90;;;;;;5091964;28;20291;-71
2022/05/22 01:35:46;;;;;;;;;;;12.70;99.90;;;;;;5091942;28;19916;-71
2022/05/22 01:38:11;;;;;;;;;;;12.70;99.90;;;;;;5073723;28;19916;-72
2022/05/22 01:40:37;;;;;;;;;;;12.70;99.90;;;;;;5092099;28;19943;-73
2022/05/22 01:43:03;;;;;;;;;;;12.70;99.90;;;;;;5073567;28;19912;-73
2022/05/22 01:45:29;;;;;;;;;;;12.70;99.90;;;;;;5073965;28;19912;-72
2022/05/22 01:47:55;;;;;;;;;;;12.60;99.90;;;;;;5091650;28;19912;-71
2022/05/22 01:50:21;;;;;;;;;;;12.60;99.90;;;;;;5092279;28;19912;-72
2022/05/22 01:52:47;;;;;;;;;;;12.60;99.90;;;;;;5091843;28;19912;-72
2022/05/22 01:55:12;;;;;;;;;;;12.50;99.90;;;;;;5092207;28;19912;-71
2022/05/22 01:57:38;;;;;;;;;;;12.70;99.90;;;;;;5091557;28;19963;-72
2022/05/22 02:00:05;;;;;;;;;;;12.50;99.90;;;;;;5073910;28;19938;-71
2022/05/22 02:02:30;;;;;;;;;;;12.50;99.90;;;;;;5073311;28;19966;-72
2022/05/22 02:04:56;;;;;;;;;;;12.60;99.90;;;;;;5092002;28;19959;-72
2022/05/22 02:10:06;;;;;;;;;;;12.50;99.90;;;;;;5092167;28;19923;-71
2022/05/22 02:12:31;;;;;;;;;;;12.40;99.90;;;;;;5073475;28;19912;-73
2022/05/22 02:14:57;;;;;;;;;;;12.40;99.90;;;;;;5092027;28;20355;-72
2022/05/22 02:17:22;;;;;;;;;;;12.40;99.90;;;;;;5091458;28;19912;-72
2022/05/22 02:19:48;;;;;;;;;;;12.30;99.90;;;;;;5091985;28;19955;-72
2022/05/22 02:22:13;;;;;;;;;;;12.30;99.90;;;;;;5073098;28;19908;-72
2022/05/22 02:24:39;;;;;;;;;;;12.30;99.90;;;;;;5092036;28;20303;-71
2022/05/22 02:27:06;;;;;;;;;;;12.30;99.90;;;;;;5073063;28;20002;-72
2022/05/22 02:29:33;;;;;;;;;;;12.30;99.90;;;;;;5095561;28;19920;-71
2022/05/22 02:31:58;;;;;;;;;;;12.30;99.90;;;;;;5095629;28;19908;-71
2022/05/22 02:34:24;;;;;;;;;;;12.30;99.90;;;;;;5076526;28;20064;-72
2022/05/22 02:36:50;;;;;;;;;;;12.30;99.90;;;;;;5076891;28;19915;-71
2022/05/22 02:39:18;;;;;;;;;;;12.30;99.90;;;;;;5077229;28;19963;-74
2022/05/22 02:41:44;;;;;;;;;;;12.30;99.90;;;;;;5095298;28;19912;-72
2022/05/22 02:44:09;;;;;;;;;;;12.30;99.90;;;;;;5095486;28;19934;-73
2022/05/22 02:46:36;;;;;;;;;;;12.40;99.90;;;;;;5095313;28;19912;-71
2022/05/22 02:49:01;;;;;;;;;;;12.40;99.90;;;;;;5076872;28;19920;-72
2022/05/22 02:51:27;;;;;;;;;;;12.40;99.90;;;;;;5076885;28;19919;-72
2022/05/22 02:53:52;;;;;;;;;;;12.30;99.90;;;;;;5076951;28;19951;-73
2022/05/22 02:56:20;;;;;;;;;;;12.40;99.90;;;;;;5095215;28;19912;-72
2022/05/22 02:58:45;;;;;;;;;;;12.40;99.90;;;;;;5094925;28;19923;-71
2022/05/22 03:01:11;;;;;;;;;;;12.30;99.90;;;;;;5094896;28;19920;-73
2022/05/22 03:03:36;;;;;;;;;;;12.30;99.90;;;;;;5095073;28;19912;-71
2022/05/22 03:08:46;;;;;;;;;;;12.40;99.90;;;;;;5094911;28;19923;-70
2022/05/22 03:11:12;;;;;;;;;;;12.30;99.90;;;;;;5095041;28;19920;-72
2022/05/22 03:13:37;;;;;;;;;;;12.50;99.90;;;;;;5094857;28;19966;-70
2022/05/22 03:16:03;;;;;;;;;;;12.50;99.90;;;;;;5094627;28;19919;-71
2022/05/22 03:18:30;;;;;;;;;;;12.50;99.90;;;;;;5094576;28;19912;-71
2022/05/22 03:20:56;;;;;;;;;;;12.60;99.90;;;;;;5094578;28;20007;-71
2022/05/22 03:23:22;;;;;;;;;;;12.60;99.90;;;;;;5076254;28;19931;-72
2022/05/22 03:25:47;;;;;;;;;;;12.70;99.90;;;;;;5076283;28;19913;-72
2022/05/22 03:28:13;;;;;;;;;;;12.60;99.90;;;;;;5094307;28;20002;-72
2022/05/22 03:30:39;;;;;;;;;;;12.60;99.90;;;;;;5075932;28;19935;-71
2022/05/22 03:33:04;;;;;;;;;;;12.70;99.90;;;;;;5076103;28;19972;-71
2022/05/22 03:35:30;;;;;;;;;;;12.70;99.90;;;;;;5075978;28;20397;-71
2022/05/22 03:37:55;;;;;;;;;;;12.70;99.90;;;;;;5094076;28;20282;-71
2022/05/22 03:40:21;;;;;;;;;;;12.70;99.90;;;;;;5094397;28;20279;-71
2022/05/22 03:42:47;;;;;;;;;;;12.70;99.90;;;;;;5075929;28;19912;-71
2022/05/22 03:45:12;;;;;;;;;;;12.60;99.90;;;;;;5076055;28;19912;-71
2022/05/22 03:47:39;;;;;;;;;;;12.70;99.90;;;;;;5094154;28;19912;-71
2022/05/22 03:50:09;;;;;;;;;;;12.80;99.90;;;;;;5094258;28;19916;-73
2022/05/22 03:52:36;;;;;;;;;;;12.70;99.90;;;;;;5093977;28;19920;-72
2022/05/22 03:55:03;;;;;;;;;;;12.70;99.90;;;;;;5075737;28;19923;-71
2022/05/22 03:57:28;;;;;;;;;;;12.80;99.90;;;;;;5093702;28;20339;-71
2022/05/22 03:59:54;;;;;;;;;;;12.80;99.90;;;;;;5075592;28;19912;-71
2022/05/22 04:02:19;;;;;;;;;;;12.80;99.90;;;;;;5075701;28;19912;-72
2022/05/22 04:04:45;;;;;;;;;;;12.80;99.90;;;;;;5075559;28;19916;-72
2022/05/22 04:07:10;;;;;;;;;;;12.70;99.90;;;;;;5075649;28;19966;-71
2022/05/22 04:09:36;;;;;;;;;;;12.70;99.90;;;;;;5075698;28;20035;-72
2022/05/22 04:12:06;;;;;;;;;;;12.70;99.90;;;;;;5075641;28;19923;-72
2022/05/22 04:14:31;;;;;;;;;;;12.70;99.90;;;;;;5093679;28;20431;-71
2022/05/22 04:16:58;;;;;;;;;;;12.70;99.90;;;;;;5075296;28;20019;-71
2022/05/22 04:19:23;;;;;;;;;;;12.70;99.90;;;;;;5094063;28;20379;-71
2022/05/22 04:21:49;;;;;;;;;;;12.70;99.90;;;;;;5093614;28;19920;-71
2022/05/22 04:27:02;;;;;;;;;;;12.70;99.90;;;;;;5093332;28;19946;-71
2022/05/22 04:29:28;;;;;;;;;;;12.80;99.90;;;;;;5093241;28;20374;-72
2022/05/22 04:31:53;;;;;;;;;;;12.90;99.90;;;;;;5093360;28;19908;-71
2022/05/22 04:34:18;;;;;;;;;;;13.00;99.90;;;;;;5093248;28;20344;-73
2022/05/22 04:36:44;;;;;;;;;;;13.10;99.90;;;;;;5074980;28;19908;-71
2022/05/22 04:39:11;;;;;;;;;;;13.10;99.90;;;;;;5093159;28;19931;-73
2022/05/22 04:41:36;;;;;;;;;;;13.20;99.90;;;;;;5075384;28;19983;-71
2022/05/22 04:44:02;;;;;;;;;;;13.30;99.90;;;;;;5074701;28;19927;-73
2022/05/22 04:46:27;;;;;;;;;;;13.30;99.90;;;;;;5074771;28;19912;-73
2022/05/22 04:48:54;;;;;;;;;;;13.20;99.90;;;;;;5092960;28;19930;-72
2022/05/22 04:51:19;;;;;;;;;;;13.20;99.90;;;;;;5092069;28;19908;-72
2022/05/22 04:53:45;;;;;;;;;;;13.30;99.90;;;;;;5074412;28;19962;-72
2022/05/22 04:56:10;;;;;;;;;;;13.30;99.90;;;;;;5093112;28;19952;-73
2022/05/22 04:58:36;;;;;;;;;;;13.30;99.90;;;;;;5074346;28;19920;-72
2022/05/22 05:01:05;;;;;;;;;;;13.40;99.90;;;;;;5092653;28;19912;-73
2022/05/22 05:03:31;;;;;;;;;;;13.40;99.90;;;;;;5074363;28;19924;-72
2022/05/22 05:05:57;;;;;;;;;;;13.40;99.90;;;;;;5074422;28;19915;-73
2022/05/22 05:08:23;;;;;;;;;;;13.40;99.90;;;;;;5074266;28;19912;-73
2022/05/22 05:10:50;;;;;;;;;;;13.40;99.90;;;;;;5074557;28;20367;-73
2022/05/22 05:13:16;;;;;;;;;;;13.40;99.90;;;;;;5074285;28;19908;-72
2022/05/22 05:15:42;;;;;;;;;;;13.50;99.90;;;;;;5092424;28;19960;-72
2022/05/22 05:18:07;;;;;;;;;;;13.60;99.90;;;;;;5092420;28;20002;-74
2022/05/22 05:20:34;;;;;;;;;;;13.70;99.90;;;;;;5092665;28;19916;-70
2022/05/22 05:23:04;;;;;;;;;;;13.70;99.90;;;;;;5073930;28;19924;-71
2022/05/22 05:25:30;;;;;;;;;;;13.70;99.90;;;;;;5074113;28;20360;-73
2022/05/22 05:27:55;;;;;;;;;;;13.80;99.90;;;;;;5092391;28;19908;-71
2022/05/22 05:30:21;;;;;;;;;;;13.90;99.90;;;;;;5092477;28;19923;-72
2022/05/22 05:32:46;;;;;;;;;;;14.10;99.90;;;;;;5074149;28;20352;-71
2022/05/22 05:35:12;;;;;;;;;;;14.10;99.90;;;;;;5073761;28;20006;-70
2022/05/22 05:37:43;;;;;;;;;;;14.20;99.90;;;;;;5091911;28;19994;-71
2022/05/22 05:40:09;;;;;;;;;;;14.20;99.90;;;;;;5073605;28;19916;-71
2022/05/22 05:42:35;;;;;;;;;;;14.20;99.90;;;;;;5073898;28;20249;-70
2022/05/22 05:45:02;;;;;;;;;;;14.10;99.90;;;;;;5092245;28;20270;-72
2022/05/22 05:47:29;;;;;;;;;;;14.10;99.90;;;;;;5091973;28;19966;-71
2022/05/22 05:49:54;;;;;;;;;;;14.00;99.90;;;;;;5092112;28;19930;-71
2022/05/22 05:52:20;;;;;;;;;;;14.00;99.90;;;;;;5091822;28;19908;-71
2022/05/22 05:54:45;;;;;;;;;;;13.90;99.90;;;;;;5073559;28;20012;-72
2022/05/22 05:57:14;;;;;;;;;;;13.80;99.90;;;;;;5073461;28;19990;-71
2022/05/22 05:59:40;;;;;;;;;;;13.70;99.90;;;;;;5073577;28;19917;-75
2022/05/22 06:02:05;;;;;;;;;;;13.70;99.90;;;;;;5073138;28;20019;-72
2022/05/22 06:04:31;;;;;;;;;;;13.80;99.90;;;;;;5092010;28;19920;-75
2022/05/22 06:06:56;;;;;;;;;;;13.60;99.90;;;;;;5092165;28;19908;-72
2022/05/22 06:09:22;;;;;;;;;;;13.60;99.90;;;;;;5091990;28;19924;-73
2022/05/22 06:11:47;;;;;;;;;;;13.70;99.90;;;;;;5091741;28;19908;-73
2022/05/22 06:14:13;;;;;;;;;;;13.70;99.90;;;;;;5091793;28;20317;-72
2022/05/22 06:16:39;;;;;;;;;;;13.70;99.90;;;;;;5091985;28;20357;-72
2022/05/22 06:19:04;;;;;;;;;;;13.80;99.90;;;;;;5073438;28;19920;-67
2022/05/22 06:21:30;;;;;;;;;;;13.60;99.90;;;;;;5091405;28;19909;-68
2022/05/22 06:23:55;;;;;;;;;;;13.60;99.90;;;;;;5091377;28;19974;-67
2022/05/22 06:26:20;;;;;;;;;;;13.50;99.90;;;;;;5091576;28;19909;-69
2022/05/22 06:28:47;;;;;;;;;;;13.50;99.90;;;;;;5091577;28;20018;-69
2022/05/22 06:31:12;;;;;;;;;;;13.50;99.90;;;;;;5091632;28;19931;-69
2022/05/22 06:33:38;;;;;;;;;;;13.50;99.90;;;;;;5091385;28;20351;-69
2022/05/22 06:36:08;;;;;;;;;;;13.50;99.90;;;;;;5091469;28;20380;-69
2022/05/22 06:41:18;;;;;;;;;;;13.40;99.90;;;;;;5091717;28;19915;-69
2022/05/22 06:43:46;;;;;;;;;;;13.50;99.90;;;;;;5091550;28;19920;-68
2022/05/22 06:46:11;;;;;;;;;;;13.60;99.90;;;;;;5091244;28;19943;-69
2022/05/22 06:48:37;;;;;;;;;;;13.70;99.90;;;;;;5091120;28;19955;-70
2022/05/22 06:51:02;;;;;;;;;;;13.80;99.90;;;;;;5091221;28;19963;-68
2022/05/22 06:53:28;;;;;;;;;;;13.80;99.90;;;;;;5091135;28;19999;-67
2022/05/22 06:55:53;;;;;;;;;;;13.80;99.90;;;;;;5091074;28;20262;-66
2022/05/22 06:58:19;;;;;;;;;;;13.70;99.90;;;;;;5072722;28;19923;-66
2022/05/22 07:00:44;;;;;;;;;;;13.60;99.90;;;;;;5091097;28;20283;-68
2022/05/22 07:03:10;;;;;;;;;;;13.50;99.90;;;;;;5072773;28;19957;-66
2022/05/22 07:05:35;;;;;;;;;;;13.40;99.90;;;;;;5091439;28;19935;-67
2022/05/22 07:08:01;;;;;;;;;;;13.30;99.90;;;;;;5090882;28;19989;-67
2022/05/22 07:13:11;;;;;;;;;;;13.40;99.90;;;;;;5091053;28;20075;-66
2022/05/22 07:15:37;;;;;;;;;;;13.50;99.90;;;;;;5094686;28;20226;-67
2022/05/22 07:18:03;;;;;;;;;;;13.50;99.90;;;;;;5094583;28;19916;-66
2022/05/22 07:20:29;;;;;;;;;;;13.40;99.90;;;;;;5095168;28;20010;-67
2022/05/22 07:22:54;;;;;;;;;;;13.40;99.90;;;;;;5094716;28;19927;-67
2022/05/22 07:25:20;;;;;;;;;;;13.40;99.90;;;;;;5094371;28;19916;-66
2022/05/22 07:27:45;;;;;;;;;;;13.50;99.90;;;;;;5094446;28;19912;-68
2022/05/22 07:30:11;;;;;;;;;;;13.60;99.90;;;;;;5094715;28;19942;-67
2022/05/22 07:32:36;;;;;;;;;;;13.70;99.90;;;;;;5094362;28;19908;-67
2022/05/22 07:35:02;;;;;;;;;;;13.90;99.90;;;;;;5094803;28;19946;-67
2022/05/22 07:37:27;;;;;;;;;;;13.70;99.90;;;;;;5094183;28;19918;-66
2022/05/22 07:39:54;;;;;;;;;;;13.60;99.90;;;;;;5094544;28;19920;-66
2022/05/22 07:42:20;;;;;;;;;;;13.50;99.90;;;;;;5094407;28;20271;-66
2022/05/22 07:44:46;;;;;;;;;;;13.40;99.90;;;;;;5094524;28;20304;-65
2022/05/22 07:47:11;;;;;;;;;;;13.30;99.90;;;;;;5094085;28;19908;-66
2022/05/22 07:52:22;;;;;;;;;;;13.00;99.90;;;;;;5094315;28;20679;-66
2022/05/22 07:54:48;;;;;;;;;;;13.00;99.90;;;;;;5094208;28;20007;-66
2022/05/22 07:57:13;;;;;;;;;;;13.00;99.90;;;;;;5075705;28;19908;-66
2022/05/22 07:59:39;;;;;;;;;;;13.10;99.90;;;;;;5094159;28;19949;-66
2022/05/22 08:02:07;;;;;;;;;;;13.10;99.90;;;;;;5093852;28;19918;-67
2022/05/22 08:04:32;;;;;;;;;;;13.00;99.90;;;;;;5093558;28;19920;-71
2022/05/22 08:06:58;;;;;;;;;;;12.90;99.90;;;;;;5093738;28;19981;-73
2022/05/22 08:09:23;;;;;;;;;;;12.90;99.90;;;;;;5075489;28;19916;-72
2022/05/22 08:11:49;;;;;;;;;;;12.80;99.90;;;;;;5075173;28;19908;-72
2022/05/22 08:14:15;;;;;;;;;;;12.70;99.90;;;;;;5075141;28;19916;-72
2022/05/22 08:16:42;;;;;;;;;;;12.80;99.90;;;;;;5093296;28;19908;-72
2022/05/22 08:19:07;;;;;;;;;;;13.10;99.90;;;;;;5075067;28;19920;-72
2022/05/22 08:21:33;;;;;;;;;;;13.30;99.90;;;;;;5075272;28;20003;-72
2022/05/22 08:23:59;;;;;;;;;;;13.50;99.90;;;;;;5075243;28;19973;-74
2022/05/22 08:26:25;;;;;;;;;;;13.50;99.90;;;;;;5092100;28;19908;-73
2022/05/22 08:28:51;;;;;;;;;;;13.50;99.90;;;;;;5093114;28;20287;-72
2022/05/22 08:31:17;;;;;;;;;;;13.50;99.90;;;;;;5093273;28;19957;-72
2022/05/22 08:33:42;;;;;;;;;;;13.60;99.90;;;;;;5092990;28;19950;-73
2022/05/22 08:36:08;;;;;;;;;;;13.70;99.90;;;;;;5093118;28;20378;-72
2022/05/22 08:38:33;;;;;;;;;;;13.80;99.90;;;;;;5074733;28;19959;-72
2022/05/22 08:41:19;;;;;;;;;;;13.80;99.90;;;;;;5093134;28;20009;-72
2022/05/22 08:44:06;;;;;;;;;;;13.80;99.90;;;;;;5092397;28;19923;-72
2022/05/22 08:46:35;;;;;;;;;;;13.80;99.90;;;;;;5065028;28;19908;-72
2022/05/22 08:49:04;;;;;;;;;;;13.80;99.90;;;;;;5074619;28;19927;-72
2022/05/22 08:51:37;;;;;;;;;;;13.70;99.90;;;;;;5092766;28;19959;-73
2022/05/22 08:54:24;;;;;;;;;;;13.70;99.90;;;;;;5092714;28;20019;-72
2022/05/22 08:59:41;;;;;;;;;;;13.70;99.90;;;;;;5078938;28;19966;-72
2022/05/22 09:02:24;;;;;;;;;;;13.80;99.90;;;;;;5092675;28;19912;-72
2022/05/22 09:04:53;;;;;;;;;;;13.70;99.90;;;;;;5074199;28;20065;-73
2022/05/22 09:07:26;;;;;;;;;;;13.60;99.90;;;;;;5074490;28;19914;-72
2022/05/22 09:10:00;;;;;;;;;;;13.70;99.90;;;;;;5092215;28;20008;-72
2022/05/22 09:12:36;;;;;;;;;;;13.60;99.90;;;;;;5092772;28;20045;-72
2022/05/22 09:15:01;;;;;;;;;;;13.50;99.90;;;;;;5092685;28;19920;-72
2022/05/22 09:17:30;;;;;;;;;;;13.40;99.90;;;;;;5091914;28;19912;-72
2022/05/22 09:19:55;;;;;;;;;;;13.20;99.90;;;;;;5073709;28;19983;-71
2022/05/22 09:22:31;;;;;;;;;;;13.00;99.90;;;;;;5073566;28;20391;-72
2022/05/22 09:25:26;;;;;;;;;;;12.80;99.90;;;;;;5074008;28;19966;-72
2022/05/22 09:27:51;;;;;;;;;;;12.70;99.90;;;;;;5057010;28;19935;-71
2022/05/22 09:30:28;;;;;;;;;;;12.50;99.90;;;;;;5091778;28;19917;-72
2022/05/22 09:33:03;;;;;;;;;;;12.50;99.90;;;;;;5092017;28;19915;-71
2022/05/22 09:35:50;;;;;;;;;;;12.40;99.90;;;;;;5092006;28;19920;-72
2022/05/22 09:38:26;;;;;;;;;;;12.40;99.90;;;;;;5073326;28;20224;-72
2022/05/22 09:40:56;;;;;;;;;;;12.60;99.90;;;;;;5073633;28;19916;-73
2022/05/22 09:43:38;;;;;;;;;;;12.70;99.90;;;;;;5091882;28;19908;-70
2022/05/22 09:46:13;;;;;;;;;;;12.90;99.90;;;;;;5091779;28;19944;-72
2022/05/22 09:48:38;;;;;;;;;;;13.00;99.90;;;;;;5073469;28;19958;-72
2022/05/22 09:51:10;;;;;;;;;;;13.10;99.90;;;;;;5091725;28;19946;-72
2022/05/22 09:53:43;;;;;;;;;;;13.10;99.90;;;;;;5091758;28;19923;-72
2022/05/22 09:56:15;;;;;;;;;;;13.00;99.90;;;;;;5073474;28;19915;-72
2022/05/22 09:58:55;;;;;;;;;;;13.00;99.90;;;;;;5073146;28;19920;-74
2022/05/22 10:01:26;;;;;;;;;;;13.00;99.90;;;;;;5091666;28;19915;-72
2022/05/22 10:04:04;;;;;;;;;;;13.10;99.90;;;;;;5091455;28;20272;-72
2022/05/22 10:06:48;;;;;;;;;;;13.00;99.90;;;;;;5091688;28;19909;-74
2022/05/22 10:09:29;;;;;;;;;;;13.00;99.90;;;;;;5073397;28;19920;-73
2022/05/22 10:11:54;;;;;;;;;;;13.10;99.90;;;;;;5091679;28;20009;-73
2022/05/22 10:14:35;;;;;;;;;;;13.00;99.90;;;;;;5073257;28;20030;-72
2022/05/22 10:17:01;;;;;;;;;;;13.00;99.90;;;;;;5091799;28;19931;-72
2022/05/22 10:19:32;;;;;;;;;;;12.90;99.90;;;;;;5091509;28;19920;-73
2022/05/22 10:22:04;;;;;;;;;;;12.80;99.90;;;;;;5090998;28;20340;-71
2022/05/22 10:24:44;;;;;;;;;;;12.70;99.90;;;;;;5091526;28;20379;-71
2022/05/22 10:27:10;;;;;;;;;;;12.60;99.90;;;;;;5073227;28;20348;-71
2022/05/22 10:29:54;;;;;;;;;;;12.60;99.90;;;;;;5073362;28;19924;-73
2022/05/22 10:32:27;;;;;;;;;;;12.60;99.90;;;;;;5091208;28;19908;-73
2022/05/22 10:34:56;;;;;;;;;;;12.60;99.90;;;;;;5091269;28;20105;-71
2022/05/22 10:37:27;;;;;;;;;;;12.50;99.90;;;;;;5091423;28;19908;-71
2022/05/22 10:39:53;;;;;;;;;;;12.40;99.90;;;;;;5073172;28;19921;-71
2022/05/22 10:45:10;;;;;;;;;;;12.40;99.90;;;;;;5091773;28;20368;-71
2022/05/22 10:47:35;;;;;;;;;;;12.30;99.90;;;;;;5073242;28;19908;-72
2022/05/22 10:50:12;;;;;;;;;;;12.30;99.90;;;;;;5075920;28;19916;-71
2022/05/22 10:52:38;;;;;;;;;;;12.30;99.90;;;;;;5076881;28;19915;-71
2022/05/22 10:55:04;;;;;;;;;;;12.40;99.90;;;;;;5095006;28;19916;-71
2022/05/22 10:57:31;;;;;;;;;;;12.40;99.90;;;;;;5094761;28;20382;-72
2022/05/22 10:59:58;;;;;;;;;;;12.40;99.90;;;;;;5094888;28;19920;-76
2022/05/22 11:02:25;;;;;;;;;;;12.30;99.90;;;;;;5095005;28;20390;-73
2022/05/22 11:04:51;;;;;;;;;;;12.30;99.90;;;;;;5094992;28;20451;-72
2022/05/22 11:07:34;;;;;;;;;;;12.10;99.90;;;;;;5095193;28;20383;-73
2022/05/22 11:10:10;;;;;;;;;;;12.00;99.90;;;;;;5095559;28;20276;-72
2022/05/22 11:12:36;;;;;;;;;;;11.90;99.90;;;;;;5094913;28;19912;-72
2022/05/22 11:15:07;;;;;;;;;;;11.80;99.90;;;;;;5095286;28;19992;-73
2022/05/22 11:17:33;;;;;;;;;;;11.70;99.90;;;;;;5094789;28;19923;-70
2022/05/22 11:20:01;;;;;;;;;;;11.70;99.90;;;;;;5094963;28;19916;-71
2022/05/22 11:22:42;;;;;;;;;;;11.70;99.90;;;;;;5076141;28;19916;-71
2022/05/22 11:25:29;;;;;;;;;;;11.70;99.90;;;;;;5076307;28;19993;-72
2022/05/22 11:28:12;;;;;;;;;;;11.70;99.90;;;;;;5076358;28;19908;-71
2022/05/22 11:30:38;;;;;;;;;;;11.70;99.90;;;;;;5094389;28;19928;-72
2022/05/22 11:33:13;;;;;;;;;;;11.70;99.90;;;;;;5094709;28;19988;-73
2022/05/22 11:35:53;;;;;;;;;;;11.70;99.90;;;;;;5094333;28;19916;-71
2022/05/22 11:38:22;;;;;;;;;;;11.70;99.90;;;;;;5094118;28;19915;-74
2022/05/22 11:40:47;;;;;;;;;;;11.80;99.90;;;;;;5076241;28;20116;-73
2022/05/22 11:43:32;;;;;;;;;;;11.70;99.90;;;;;;5075982;28;20374;-72
2022/05/22 11:46:06;;;;;;;;;;;11.80;99.90;;;;;;5094142;28;19908;-72
2022/05/22 11:48:32;;;;;;;;;;;11.80;99.90;;;;;;5094255;28;19942;-72
2022/05/22 11:51:08;;;;;;;;;;;11.80;99.90;;;;;;5094042;28;19912;-71
2022/05/22 11:53:36;;;;;;;;;;;11.80;99.90;;;;;;5093964;28;20010;-72
2022/05/22 11:56:05;;;;;;;;;;;11.80;99.90;;;;;;5093740;28;19914;-70
2022/05/22 11:58:34;;;;;;;;;;;11.90;99.90;;;;;;5075629;28;19916;-72
2022/05/22 12:01:09;;;;;;;;;;;11.90;99.90;;;;;;5093567;28;20336;-72
2022/05/22 12:03:53;;;;;;;;;;;11.90;99.90;;;;;;5093585;28;20337;-71
2022/05/22 12:06:33;;;;;;;;;;;11.80;99.90;;;;;;5075558;28;20339;-71
2022/05/22 12:09:05;;;;;;;;;;;11.80;99.90;;;;;;5093670;28;19916;-72
2022/05/22 12:11:50;;;;;;;;;;;11.80;99.90;;;;;;5075314;28;20145;-72
2022/05/22 12:14:44;;;;;;;;;;;11.80;99.90;;;;;;5094041;28;20363;-71
2022/05/22 12:17:36;;;;;;;;;;;11.80;99.90;;;;;;5058042;28;20008;-71
2022/05/22 12:20:19;;;;;;;;;;;11.70;99.90;;;;;;5089287;28;19927;-72
2022/05/22 12:23:10;;;;;;;;;;;11.70;99.90;;;;;;5092968;28;19920;-71
2022/05/22 12:25:40;;;;;;;;;;;11.60;99.90;;;;;;5075685;28;19946;-71
2022/05/22 12:28:17;;;;;;;;;;;11.60;99.90;;;;;;5093219;28;19918;-71
2022/05/22 12:30:43;;;;;;;;;;;11.60;99.90;;;;;;5093366;28;20006;-72
2022/05/22 12:33:10;;;;;;;;;;;11.70;99.90;;;;;;5075019;28;19981;-71
2022/05/22 12:35:36;;;;;;;;;;;11.70;99.90;;;;;;5075249;28;20371;-71
2022/05/22 12:38:04;;;;;;;;;;;11.70;99.90;;;;;;5074858;28;20451;-73
2022/05/22 12:40:47;;;;;;;;;;;11.70;99.90;;;;;;5074968;28;19920;-71
2022/05/22 12:43:14;;;;;;;;;;;11.60;99.90;;;;;;5092818;28;19912;-72
2022/05/22 12:45:39;;;;;;;;;;;11.70;99.90;;;;;;5093037;28;19939;-71
2022/05/22 12:48:24;;;;;;;;;;;11.70;99.90;;;;;;5093027;28;19962;-71
2022/05/22 12:50:51;;;;;;;;;;;11.80;99.90;;;;;;5093035;28;19916;-73
2022/05/22 12:53:28;;;;;;;;;;;11.80;99.90;;;;;;5092750;28;19981;-73
2022/05/22 12:55:54;;;;;;;;;;;11.90;99.90;;;;;;5092814;28;19908;-71
2022/05/22 12:58:37;;;;;;;;;;;12.00;99.90;;;;;;5074363;28;19935;-71
2022/05/22 13:01:18;;;;;;;;;;;12.00;99.90;;;;;;5074798;28;19981;-73
2022/05/22 13:03:48;;;;;;;;;;;12.40;99.90;;;;;;5092458;28;19965;-71
2022/05/22 13:06:23;;;;;;;;;;;12.00;99.90;;;;;;5092570;28;19923;-71
2022/05/22 13:08:56;;;;;;;;;;;12.00;99.90;;;;;;5074374;28;19923;-73
2022/05/22 13:11:25;;;;;;;;;;;12.10;99.90;;;;;;5092112;28;19908;-72
2022/05/22 13:13:51;;;;;;;;;;;12.10;99.90;;;;;;5092688;28;19916;-72
2022/05/22 13:16:24;;;;;;;;;;;12.10;99.90;;;;;;5074341;28;19914;-71
2022/05/22 13:18:50;;;;;;;;;;;12.10;99.90;;;;;;5074089;28;19928;-71
2022/05/22 13:21:30;;;;;;;;;;;12.10;99.90;;;;;;5092384;28;19913;-71
2022/05/22 13:24:14;;;;;;;;;;;12.10;99.90;;;;;;5073981;28;19931;-72
2022/05/22 13:26:40;;;;;;;;;;;12.10;99.90;;;;;;5092251;28;19912;-71
2022/05/22 13:29:14;;;;;;;;;;;12.10;99.90;;;;;;5092833;28;19931;-71
2022/05/22 13:31:50;;;;;;;;;;;12.00;99.90;;;;;;5074140;28;19916;-74
2022/05/22 13:34:15;;;;;;;;;;;11.90;99.90;;;;;;5092114;28;19968;-73
2022/05/22 13:36:53;;;;;;;;;;;11.80;99.90;;;;;;5092281;28;20003;-71
2022/05/22 13:39:25;;;;;;;;;;;11.90;99.90;;;;;;5092017;28;20069;-71
2022/05/22 13:42:01;;;;;;;;;;;11.80;99.90;;;;;;5092032;28;20356;-71
2022/05/22 13:44:29;;;;;;;;;;;11.90;99.90;;;;;;5092245;28;19920;-71
2022/05/22 13:47:14;;;;;;;;;;;11.90;99.90;;;;;;5092259;28;19980;-73
2022/05/22 13:52:34;;;;;;;;;;;11.80;99.90;;;;;;5091812;28;19959;-71
2022/05/22 13:53:03;;;;;;;;;;;11.80;99.90;;;;;;5091721;28;20364;-71
2022/05/22 13:55:29;;;;;;;;;;;11.80;99.90;;;;;;5065503;28;19920;-70
2022/05/22 13:57:56;;;;;;;;;;;11.80;99.90;;;;;;5091563;28;19976;-70
2022/05/22 14:00:23;;;;;;;;;;;11.90;99.90;;;;;;5092080;28;19916;-71
2022/05/22 14:02:53;;;;;;;;;;;11.90;99.90;;;;;;5091416;28;19915;-72
2022/05/22 14:05:19;;;;;;;;;;;11.90;99.90;;;;;;5091306;28;19916;-71
2022/05/22 14:07:52;;;;;;;;;;;11.90;99.90;;;;;;5073449;28;19908;-73
2022/05/22 14:10:33;;;;;;;;;;;11.90;99.90;;;;;;5092087;28;19927;-73
2022/05/22 14:13:09;;;;;;;;;;;11.90;99.90;;;;;;5073417;28;19908;-70
2022/05/22 14:15:34;;;;;;;;;;;11.90;99.90;;;;;;5092032;28;19916;-72
2022/05/22 14:18:10;;;;;;;;;;;11.90;99.90;;;;;;5091386;28;19927;-73
2022/05/22 14:20:39;;;;;;;;;;;11.90;99.90;;;;;;5092018;28;19916;-71
2022/05/22 14:23:14;;;;;;;;;;;12.00;99.90;;;;;;5074652;28;20094;-71
2022/05/22 14:25:41;;;;;;;;;;;11.90;99.90;;;;;;5077530;28;19916;-73
2022/05/22 14:28:07;;;;;;;;;;;11.90;99.90;;;;;;5095611;28;19912;-72
2022/05/22 14:30:34;;;;;;;;;;;11.90;99.90;;;;;;5095534;28;19916;-71
2022/05/22 14:33:09;;;;;;;;;;;11.90;99.90;;;;;;5095578;28;19957;-73
2022/05/22 14:35:36;;;;;;;;;;;11.80;99.90;;;;;;5096133;28;19916;-71
2022/05/22 14:38:13;;;;;;;;;;;11.80;99.90;;;;;;5095325;28;20224;-72
2022/05/22 14:40:51;;;;;;;;;;;11.80;99.90;;;;;;5077441;28;19920;-72
2022/05/22 14:43:18;;;;;;;;;;;11.90;99.90;;;;;;5095545;28;19914;-71
2022/05/22 14:45:47;;;;;;;;;;;11.90;99.90;;;;;;5077318;28;19912;-72
2022/05/22 14:48:14;;;;;;;;;;;11.80;99.90;;;;;;5095367;28;20386;-73